Bookmark and Share
Track history (hours):
 

Grand Princess

Operator: Princess Cruises

Last reported at 2014-Apr-15 09:00 UTC. Time now 2014-Apr-16 13:34 UTC.
Position N 33°00' W 133°12'.

Length 289.5 m; beam 36 m; draft 8.5 m.

Type: Ship. MMSI: 310327000.

Wind from 050 at 22 knots

Waves 1.5 meters (5 feet), 3 second period

Barometer 1027.8 mb
Air temperature 13.5 ° C
Visibility: greater than 10.8 NM
Dewpoint 12.6 ° C
Water temperature 17.0 ° C

NotesDate/timePositionNaut miles runAvg speedWind from/ knotsBaromVisibWave heightAir tempDewpointWater temp
2014-Apr-15 09:00N 33°00' W 133°12'18417.6 050 / 221027.810.8 1.513.512.617.0
2014-Apr-14 22:33N 34°30' W 129°59'5919.4
2014-Apr-14 19:30N 34°59' W 128°56'3718.9
2014-Apr-14 17:34N 35°16' W 128°17'4730.1
2014-Apr-14 16:00N 35°36' W 127°24'918.4 350 / 301021.010.8 1.512.5 9.614.0
2014-Apr-14 15:31N 35°35' W 127°35'7819.5
2014-Apr-14 11:32N 36°12' W 126°10'6826.9
2014-Apr-14 09:00N 36°42' W 124°54'10 7.1 330 / 231019.110.8 2.012.010.114.0
2014-Apr-14 07:34N 36°49' W 124°45'2020.3
2014-Apr-14 06:34N 36°59' W 124°23'2019.8
2014-Apr-14 05:34N 37°09' W 124°01'4931.2
2014-Apr-14 04:00N 37°30' W 123°06'38 6.9 330 / 251017.110.8 1.514.012.213.0
2014-Apr-13 22:31N 37°48' W 122°24'0 0.0
2014-Apr-13 21:31N 37°48' W 122°24'0 0.0
2014-Apr-13 20:33N 37°48' W 122°24'0 0.0
2014-Apr-13 19:33N 37°48' W 122°24'0 0.0
2014-Apr-13 18:32N 37°48' W 122°24'0 0.0
2014-Apr-13 17:29N 37°48' W 122°24'0 0.0
2014-Apr-13 16:32N 37°48' W 122°24'0 0.0
2014-Apr-13 15:28N 37°48' W 122°24'0 0.0
2014-Apr-13 14:31N 37°48' W 122°24'0 0.0
2014-Apr-13 13:33N 37°48' W 122°24'5 5.2
2014-Apr-13 12:33N 37°48' W 122°31'1212.2
2014-Apr-13 11:33N 37°42' W 122°44'1111.1
2014-Apr-13 10:33N 37°36' W 122°56'1111.2
2014-Apr-13 09:33N 37°30' W 123°08'1111.3
2014-Apr-13 08:33N 37°24' W 123°20'1110.8
2014-Apr-13 07:33N 37°13' W 123°17'1111.3
2014-Apr-13 06:33N 37°03' W 123°11'1111.1
2014-Apr-13 05:33N 36°53' W 123°06'1111.2
2014-Apr-13 04:33N 36°43' W 123°00'1111.1
2014-Apr-13 03:33N 36°32' W 122°55'1110.9
2014-Apr-13 02:33N 36°22' W 122°50'1111.0
2014-Apr-13 01:33N 36°12' W 122°44'1110.9
2014-Apr-13 00:33N 36°02' W 122°39'1110.9
2014-Apr-12 23:33N 35°52' W 122°34'1110.8
2014-Apr-12 22:33N 35°42' W 122°28'1313.5
2014-Apr-12 21:33N 35°30' W 122°22'1313.3
2014-Apr-12 20:33N 35°17' W 122°16'1211.7
2014-Apr-12 19:33N 35°06' W 122°14'1212.1
2014-Apr-12 18:33N 34°54' W 122°14'1312.6
2014-Apr-12 17:33N 34°41' W 122°15'1413.7
2014-Apr-12 16:33N 34°28' W 122°15'1916.3
2014-Apr-12 15:22N 34°08' W 122°15'1411.3
2014-Apr-12 14:10N 33°55' W 122°16'14 8.9
2014-Apr-12 12:33N 33°48' W 122°00'1111.2
2014-Apr-12 11:33N 33°49' W 121°47'1211.8
2014-Apr-12 10:32N 33°57' W 121°36'1511.7
2014-Apr-12 09:16N 34°07' W 121°23'911.9
2014-Apr-12 08:31N 34°13' W 121°15'1411.8
2014-Apr-12 07:19N 34°23' W 121°02'6711.5
2014-Apr-12 01:29N 34°23' W 119°41'0 0.1
2014-Apr-11 23:23N 34°24' W 119°41'0 0.0
2014-Apr-11 22:23N 34°24' W 119°41'0 0.1
2014-Apr-11 21:28N 34°24' W 119°41'0 0.0
2014-Apr-11 20:31N 34°24' W 119°41'0 0.0
2014-Apr-11 19:33N 34°24' W 119°41'0 0.1
2014-Apr-11 18:33N 34°23' W 119°41'0 0.0
2014-Apr-11 17:17N 34°24' W 119°41'0 0.0
2014-Apr-11 16:32N 34°24' W 119°41'0 0.0
2014-Apr-11 15:32N 34°24' W 119°41'0 0.0
2014-Apr-11 14:31N 34°24' W 119°41'0 0.4
2014-Apr-11 13:34N 34°23' W 119°41'1010.3
2014-Apr-11 12:34N 34°13' W 119°44'1212.4
2014-Apr-11 11:34N 34°08' W 119°30'1513.7
2014-Apr-11 10:27N 34°03' W 119°13'1314.2
2014-Apr-11 09:34N 33°57' W 118°60'1515.3
2014-Apr-11 08:33N 33°49' W 118°44'1818.2
2014-Apr-11 07:34N 33°40' W 118°25'1313.4
2014-Apr-11 06:34N 33°35' W 118°10'1515.2
2014-Apr-11 05:33N 33°21' W 118°03'1817.7
2014-Apr-11 04:33N 33°07' W 117°50'1817.9
2014-Apr-11 03:34N 32°54' W 117°36'1615.7
2014-Apr-11 02:34N 32°42' W 117°24'9 8.5
2014-Apr-11 01:33N 32°40' W 117°14'4 3.7
2014-Apr-11 00:28N 32°43' W 117°10'0 0.0
2014-Apr-10 23:33N 32°43' W 117°10'0 0.0
2014-Apr-10 22:33N 32°43' W 117°10'0 0.0
2014-Apr-10 21:32N 32°43' W 117°10'0 0.0
2014-Apr-10 20:32N 32°43' W 117°10'0 0.0
2014-Apr-10 19:28N 32°43' W 117°10'0 0.0
2014-Apr-10 18:31N 32°43' W 117°10'0 0.0
2014-Apr-10 17:28N 32°43' W 117°10'0 0.0
2014-Apr-10 16:33N 32°43' W 117°10'0 0.0
2014-Apr-10 15:33N 32°43' W 117°10'2 1.7
2014-Apr-10 14:33N 32°43' W 117°12'8 8.1
2014-Apr-10 13:33N 32°35' W 117°15'1010.4
2014-Apr-10 12:33N 32°33' W 117°27'1111.4
2014-Apr-10 11:33N 32°30' W 117°40'1110.8
2014-Apr-10 10:33N 32°28' W 117°53'9 9.1
2014-Apr-10 09:33N 32°28' W 118°04'9 9.5
2014-Apr-10 08:33N 32°37' W 118°04'10 9.6
2014-Apr-10 07:33N 32°47' W 118°04'10 9.7
2014-Apr-10 06:33N 32°56' W 118°04'5 8.9
2014-Apr-10 06:00N 33°00' W 118°00'715.5 310 / 101016.010.8 0.515.514.617.0
2014-Apr-10 05:33N 33°06' W 118°04'10 9.7
2014-Apr-10 04:33N 33°16' W 118°05'1010.3
2014-Apr-10 03:33N 33°25' W 118°09'1010.3
2014-Apr-10 02:33N 33°35' W 118°13'10 9.7
2014-Apr-10 01:33N 33°45' W 118°11'1 0.4
2014-Apr-10 00:18N 33°45' W 118°11'0 0.0
2014-Apr-09 23:23N 33°45' W 118°11'0 0.0
2014-Apr-09 22:29N 33°45' W 118°11'0 0.0
2014-Apr-09 21:28N 33°45' W 118°11'0 0.0
2014-Apr-09 19:25N 33°45' W 118°11'0 0.0
2014-Apr-09 18:18N 33°45' W 118°11'0 0.0
2014-Apr-09 17:33N 33°45' W 118°11'0 0.0
2014-Apr-09 16:29N 33°45' W 118°11'0 0.0
2014-Apr-09 15:32N 33°45' W 118°11'0 0.0
2014-Apr-09 14:32N 33°45' W 118°11'0 0.0
2014-Apr-09 13:33N 33°45' W 118°11'5 5.2
2014-Apr-09 12:33N 33°40' W 118°11'1010.1
2014-Apr-09 11:34N 33°30' W 118°07'1110.5
2014-Apr-09 10:33N 33°20' W 118°03'1010.2
2014-Apr-09 09:34N 33°11' W 117°58'1110.3
2014-Apr-09 08:32N 33°01' W 117°54'1010.6
2014-Apr-09 07:33N 32°51' W 117°49'1212.0
2014-Apr-09 06:32N 32°40' W 117°44'1222.0
2014-Apr-09 06:00N 32°30' W 117°36'2 4.7 360 / 121016.710.8 0.516.515.717.0
2014-Apr-09 05:33N 32°29' W 117°38'1312.5
2014-Apr-09 04:31N 32°17' W 117°30'1312.8
2014-Apr-09 03:31N 32°08' W 117°19'1019.7
2014-Apr-09 03:00N 32°00' W 117°12'3 6.4 360 / 301014.010.8 0.517.515.817.0
2014-Apr-09 02:33N 31°60' W 117°09'11 0.8
2014-Apr-08 12:27N 31°56' W 116°57'2613.5
2014-Apr-08 10:33N 32°04' W 117°25'1313.1
2014-Apr-08 09:34N 32°09' W 117°40'3 5.6
2014-Apr-08 09:00N 32°06' W 117°42'1328.9 280 / 121018.810.8 1.014.012.917.0
2014-Apr-08 08:34N 32°13' W 117°54'1312.9
2014-Apr-08 07:34N 32°17' W 118°09'1413.1
2014-Apr-08 06:31N 32°21' W 118°24'1313.2
2014-Apr-08 05:29N 32°26' W 118°39'1212.7
2014-Apr-08 04:34N 32°30' W 118°52'1313.1
2014-Apr-08 03:34N 32°36' W 119°07'1313.3
2014-Apr-08 02:33N 32°41' W 119°21'4013.2
2014-Apr-07 23:33N 33°02' W 120°01'1313.4
2014-Apr-07 22:34N 33°11' W 120°13'1313.3
2014-Apr-07 21:34N 33°21' W 120°24'1413.7
2014-Apr-07 20:33N 33°31' W 120°35'6813.5
2014-Apr-07 15:33N 34°26' W 121°21'2913.2
2014-Apr-07 13:20N 34°52' W 121°38'1013.4
2014-Apr-07 12:33N 35°01' W 121°45'1313.2
2014-Apr-07 11:33N 35°13' W 121°53'1413.8
2014-Apr-07 10:33N 35°25' W 122°01'1413.9
2014-Apr-07 09:33N 35°37' W 122°09'1413.7
2014-Apr-07 08:33N 35°49' W 122°17'1414.2
2014-Apr-07 07:33N 36°01' W 122°26'1414.3
2014-Apr-07 06:33N 36°14' W 122°35'1414.0
2014-Apr-07 05:33N 36°26' W 122°43'1413.9
2014-Apr-07 04:33N 36°39' W 122°49'1414.2
2014-Apr-07 03:33N 36°53' W 122°50'1716.9
2014-Apr-07 02:34N 37°10' W 122°47'1817.6
2014-Apr-07 01:33N 37°27' W 122°44'1716.8
2014-Apr-07 00:34N 37°44' W 122°41'1312.7
2014-Apr-06 23:33N 37°49' W 122°26'1 1.3
2014-Apr-06 22:29N 37°48' W 122°24'0 0.0
2014-Apr-06 21:32N 37°48' W 122°24'0 0.0
2014-Apr-06 20:31N 37°48' W 122°24'0 0.0
2014-Apr-06 19:31N 37°48' W 122°24'0 0.0
2014-Apr-06 18:31N 37°48' W 122°24'0 0.0
2014-Apr-06 17:33N 37°48' W 122°24'0 0.0
2014-Apr-06 16:33N 37°48' W 122°24'0 0.0
2014-Apr-06 15:32N 37°48' W 122°24'0 0.0
2014-Apr-06 14:32N 37°48' W 122°24'0 0.0
2014-Apr-06 13:31N 37°48' W 122°24'5 5.1
2014-Apr-06 12:33N 37°48' W 122°31'1312.6
2014-Apr-06 11:33N 37°42' W 122°45'1212.2
2014-Apr-06 10:33N 37°35' W 122°57'1212.5
2014-Apr-06 09:33N 37°29' W 123°11'1313.3
2014-Apr-06 08:33N 37°22' W 123°25'1413.9
2014-Apr-06 07:33N 37°15' W 123°41'1414.0
2014-Apr-06 06:33N 37°09' W 123°56'1220.8
2014-Apr-06 06:00N 37°00' W 124°06'818.0 330 / 251023.910.8 1.514.012.214.0
2014-Apr-06 05:33N 36°60' W 124°16'26519.6
2014-Apr-05 16:00N 34°48' W 129°00'1919.1 330 / 171025.710.8 1.516.010.315.0
2014-Apr-05 15:00N 34°36' W 129°18'11318.8 330 / 151024.010.8 1.515.011.315.0
2014-Apr-05 09:00N 33°42' W 131°18'   320 / 151026.210.8 1.514.212.217.0

Dump ship's entire track history

sailing weather and tide predictions

Grand Princess — ZCBU5 — position and weather